createdAt,value
2022-11-29T00:02:46.080Z,62.90
2022-11-29T00:05:39.606Z,63.00
2022-11-29T00:08:27.657Z,63.10
2022-11-29T00:11:16.573Z,63.10
2022-11-29T00:14:03.653Z,63.20
2022-11-29T00:16:43.617Z,63.20
2022-11-29T00:19:30.576Z,63.30
2022-11-29T00:22:11.614Z,63.50
2022-11-29T00:24:58.567Z,63.40
2022-11-29T00:27:46.577Z,63.50
2022-11-29T00:30:34.697Z,63.60
2022-11-29T00:33:14.595Z,63.60
2022-11-29T00:35:55.050Z,63.60
2022-11-29T00:38:41.567Z,63.70
2022-11-29T00:41:28.554Z,63.70
2022-11-29T00:44:20.215Z,63.70
2022-11-29T00:47:07.655Z,63.70
2022-11-29T00:49:48.630Z,63.80
2022-11-29T00:52:29.040Z,63.80
2022-11-29T00:55:15.583Z,63.90
2022-11-29T00:57:56.043Z,63.80
2022-11-29T01:00:42.583Z,63.80
2022-11-29T01:03:23.784Z,63.90
2022-11-29T01:06:14.620Z,64.10
2022-11-29T01:08:55.112Z,64.00
2022-11-29T01:11:41.571Z,64.00
2022-11-29T01:14:28.567Z,64.10
2022-11-29T01:17:08.670Z,64.10
2022-11-29T01:19:55.632Z,64.10
2022-11-29T01:22:35.615Z,64.20
2022-11-29T01:25:22.568Z,64.10
2022-11-29T01:28:02.685Z,64.10
2022-11-29T01:30:49.620Z,64.20
2022-11-29T01:33:29.696Z,64.20
2022-11-29T01:36:18.580Z,64.30
2022-11-29T01:39:06.559Z,64.20
2022-11-29T01:41:53.721Z,64.20
2022-11-29T01:44:34.675Z,64.20
2022-11-29T01:47:23.556Z,64.00
2022-11-29T01:50:03.847Z,64.00
2022-11-29T01:52:51.576Z,64.00
2022-11-29T01:55:31.694Z,64.00
2022-11-29T01:58:19.565Z,63.90
2022-11-29T02:01:06.635Z,63.90
2022-11-29T02:03:53.573Z,63.90
2022-11-29T02:06:35.719Z,63.90
2022-11-29T02:09:31.571Z,63.90
2022-11-29T02:12:32.566Z,63.90
2022-11-29T02:15:31.645Z,64.00
2022-11-29T02:18:20.315Z,64.00
2022-11-29T02:21:32.607Z,63.90
2022-11-29T02:24:55.057Z,64.00
2022-11-29T02:27:47.604Z,63.90
2022-11-29T02:30:49.695Z,63.80
2022-11-29T02:33:41.555Z,63.80
2022-11-29T02:36:50.608Z,64.70
2022-11-29T02:40:02.558Z,63.80
2022-11-29T02:43:07.571Z,63.80
2022-11-29T02:45:54.777Z,63.80
2022-11-29T02:48:50.581Z,63.80
2022-11-29T02:52:00.571Z,63.90
2022-11-29T02:55:11.172Z,63.90
2022-11-29T02:58:22.599Z,63.90
2022-11-29T03:01:11.308Z,63.90
2022-11-29T03:04:09.570Z,63.90
2022-11-29T03:07:16.624Z,63.90
2022-11-29T03:10:16.564Z,64.00
2022-11-29T03:13:05.551Z,63.90
2022-11-29T03:16:03.634Z,64.00
2022-11-29T03:19:10.580Z,64.00
2022-11-29T03:22:11.680Z,64.00
2022-11-29T03:25:09.594Z,64.00
2022-11-29T03:28:20.594Z,64.00
2022-11-29T03:31:27.631Z,63.90
2022-11-29T03:34:31.570Z,64.00
2022-11-29T03:37:55.631Z,64.00
2022-11-29T03:40:53.663Z,64.00
2022-11-29T03:43:43.572Z,64.00
2022-11-29T03:46:52.687Z,64.00
2022-11-29T03:49:42.588Z,64.10
2022-11-29T03:52:58.610Z,64.10
2022-11-29T03:55:59.677Z,64.00
2022-11-29T03:59:15.688Z,64.10
2022-11-29T04:02:49.684Z,64.10
2022-11-29T04:05:55.587Z,64.20
2022-11-29T04:09:20.588Z,64.20
2022-11-29T04:12:23.612Z,64.20
2022-11-29T04:15:31.600Z,64.20
2022-11-29T04:18:49.039Z,64.30
2022-11-29T04:21:41.576Z,64.40
2022-11-29T04:24:50.552Z,64.30
2022-11-29T04:28:14.589Z,64.40
2022-11-29T04:31:08.739Z,64.40
2022-11-29T04:34:27.579Z,64.40
2022-11-29T04:37:32.554Z,64.40
2022-11-29T04:40:31.622Z,64.40
2022-11-29T04:43:18.607Z,64.30
2022-11-29T04:46:44.653Z,64.40
2022-11-29T04:49:30.976Z,64.50
2022-11-29T04:52:26.616Z,64.30
2022-11-29T04:55:31.020Z,64.30
2022-11-29T04:58:45.621Z,64.30
2022-11-29T05:01:55.617Z,64.20
2022-11-29T05:05:23.636Z,64.20
2022-11-29T05:08:12.994Z,64.20
2022-11-29T05:11:26.914Z,64.30
2022-11-29T05:14:45.024Z,64.20
2022-11-29T05:18:16.602Z,64.30
2022-11-29T05:21:21.570Z,64.50
2022-11-29T05:24:28.631Z,64.50
2022-11-29T05:27:21.571Z,64.40
2022-11-29T05:30:05.646Z,64.50
2022-11-29T05:33:04.571Z,64.60
2022-11-29T05:36:04.620Z,64.70
2022-11-29T05:39:00.581Z,64.70
2022-11-29T05:42:23.581Z,64.60
2022-11-29T05:45:07.911Z,64.50
2022-11-29T05:48:09.593Z,64.50
2022-11-29T05:51:20.361Z,64.50
2022-11-29T05:54:24.684Z,64.50
2022-11-29T05:57:40.635Z,64.40
2022-11-29T06:00:23.582Z,64.30
2022-11-29T06:03:49.291Z,64.20
2022-11-29T06:06:51.563Z,64.20
2022-11-29T06:10:01.346Z,64.10
2022-11-29T06:12:44.577Z,65.00
2022-11-29T06:15:54.635Z,64.00
2022-11-29T06:18:59.580Z,64.00
2022-11-29T06:22:05.609Z,64.00
2022-11-29T06:24:58.336Z,63.80
2022-11-29T06:28:24.568Z,63.80
2022-11-29T06:31:40.628Z,63.80
2022-11-29T06:34:34.579Z,63.80
2022-11-29T06:37:32.641Z,63.60
2022-11-29T06:40:22.589Z,63.60
2022-11-29T06:43:02.640Z,63.70
2022-11-29T06:45:57.588Z,63.60
2022-11-29T06:48:45.653Z,63.60
2022-11-29T06:51:44.587Z,63.60
2022-11-29T06:54:59.606Z,63.60
2022-11-29T06:58:20.628Z,63.50
2022-11-29T07:01:26.660Z,64.20
2022-11-29T07:04:45.865Z,64.60
2022-11-29T07:07:35.662Z,64.50
2022-11-29T07:10:24.578Z,64.00
2022-11-29T07:13:04.675Z,63.70
2022-11-29T07:16:23.661Z,63.30
2022-11-29T07:19:29.589Z,63.00
2022-11-29T07:22:34.186Z,62.70
2022-11-29T07:25:59.571Z,62.40
2022-11-29T07:28:59.706Z,62.00
2022-11-29T07:32:08.815Z,62.00
2022-11-29T07:35:09.589Z,61.70
2022-11-29T07:37:57.594Z,61.50
2022-11-29T07:40:38.046Z,61.30
2022-11-29T07:43:36.587Z,61.20
2022-11-29T07:46:23.624Z,61.00
2022-11-29T07:49:10.581Z,60.90
2022-11-29T07:51:57.565Z,60.80
2022-11-29T07:54:38.384Z,60.80
2022-11-29T07:57:17.576Z,60.70
2022-11-29T07:59:57.654Z,60.70
2022-11-29T08:02:51.588Z,60.70
2022-11-29T08:05:31.624Z,60.70
2022-11-29T08:08:18.592Z,60.50
2022-11-29T08:11:05.571Z,60.50
2022-11-29T08:13:52.645Z,60.50
2022-11-29T08:16:32.626Z,60.40
2022-11-29T08:19:13.039Z,60.50
2022-11-29T08:21:59.598Z,60.30
2022-11-29T08:24:47.070Z,60.30
2022-11-29T08:27:26.584Z,60.30
2022-11-29T08:30:21.572Z,60.20
2022-11-29T08:33:08.596Z,60.20
2022-11-29T08:35:49.663Z,60.20
2022-11-29T08:38:36.565Z,60.20
2022-11-29T08:41:17.640Z,60.10
2022-11-29T08:44:04.581Z,60.10
2022-11-29T08:47:03.484Z,60.00
2022-11-29T08:50:08.580Z,60.10
2022-11-29T08:53:17.606Z,59.90
2022-11-29T08:56:31.736Z,60.00
2022-11-29T08:59:06.607Z,60.00
2022-11-29T09:01:53.663Z,59.90
2022-11-29T09:04:33.629Z,59.90
2022-11-29T09:07:20.649Z,59.90
2022-11-29T09:10:04.996Z,59.80
2022-11-29T09:12:52.588Z,59.80
2022-11-29T09:15:32.638Z,59.80
2022-11-29T09:18:26.596Z,59.80
2022-11-29T09:21:15.584Z,59.70
2022-11-29T09:23:58.691Z,59.70
2022-11-29T09:26:47.590Z,59.60
2022-11-29T09:29:27.660Z,59.60
2022-11-29T09:32:14.588Z,59.60
2022-11-29T09:34:54.656Z,59.50
2022-11-29T09:37:43.595Z,59.50
2022-11-29T09:40:40.603Z,59.40
2022-11-29T09:43:38.247Z,59.50
2022-11-29T09:46:33.601Z,59.30
2022-11-29T09:49:35.865Z,59.30
2022-11-29T09:52:31.600Z,59.30
2022-11-29T09:55:40.780Z,59.20
2022-11-29T09:58:27.591Z,59.10
2022-11-29T10:01:10.719Z,59.10
2022-11-29T10:04:06.588Z,59.20
2022-11-29T10:06:59.600Z,59.00
2022-11-29T10:09:55.716Z,58.90
2022-11-29T10:12:50.606Z,58.80
2022-11-29T10:15:34.649Z,58.80
2022-11-29T10:18:44.604Z,58.70
2022-11-29T10:21:31.704Z,58.70
2022-11-29T10:24:24.663Z,58.60
2022-11-29T10:27:04.652Z,58.60
2022-11-29T10:29:55.615Z,59.50
2022-11-29T10:32:42.641Z,58.60
2022-11-29T10:35:24.567Z,58.50
2022-11-29T10:38:30.280Z,58.50
2022-11-29T10:41:22.686Z,58.30
2022-11-29T10:44:09.606Z,58.30
2022-11-29T10:46:56.607Z,58.20
2022-11-29T10:49:44.600Z,58.20
2022-11-29T10:52:28.666Z,58.00
2022-11-29T10:55:21.581Z,58.00
2022-11-29T10:58:32.600Z,58.00
2022-11-29T11:01:21.656Z,58.00
2022-11-29T11:04:11.589Z,58.00
2022-11-29T11:06:56.613Z,57.90
2022-11-29T11:10:01.599Z,58.00
2022-11-29T11:13:10.636Z,58.00
2022-11-29T11:15:50.614Z,57.90
2022-11-29T11:18:31.949Z,57.80
2022-11-29T11:21:23.610Z,57.70
2022-11-29T11:24:04.322Z,57.80
2022-11-29T11:26:58.606Z,57.60
2022-11-29T11:29:44.112Z,57.60
2022-11-29T11:32:32.591Z,57.50
2022-11-29T11:35:23.222Z,57.40
2022-11-29T11:38:10.583Z,57.60
2022-11-29T11:41:54.603Z,57.60
2022-11-29T11:44:58.554Z,57.80
2022-11-29T11:47:42.674Z,57.60
2022-11-29T11:50:43.600Z,58.60
2022-11-29T11:53:44.585Z,57.50
2022-11-29T11:56:39.606Z,57.40
2022-11-29T11:59:36.605Z,57.40
2022-11-29T12:02:36.722Z,57.30
2022-11-29T12:05:29.600Z,57.20
2022-11-29T12:08:13.132Z,58.30
2022-11-29T12:11:06.897Z,57.20
2022-11-29T12:14:01.627Z,57.10
2022-11-29T12:16:51.601Z,57.10
2022-11-29T12:19:44.599Z,57.00
2022-11-29T12:22:30.690Z,56.90
2022-11-29T12:25:24.616Z,56.90
2022-11-29T12:28:04.652Z,56.90
2022-11-29T12:31:24.719Z,56.90
2022-11-29T12:34:45.145Z,57.10
2022-11-29T12:37:52.608Z,56.90
2022-11-29T12:40:50.698Z,56.90
2022-11-29T12:43:50.605Z,56.80
2022-11-29T12:46:42.635Z,56.80
2022-11-29T12:50:07.595Z,56.60
2022-11-29T12:53:06.704Z,56.70
2022-11-29T12:55:53.605Z,56.60
2022-11-29T12:59:14.704Z,56.50
2022-11-29T13:01:54.660Z,56.50
2022-11-29T13:04:55.033Z,56.50
2022-11-29T13:08:00.816Z,56.40
2022-11-29T13:11:11.599Z,56.40
2022-11-29T13:14:41.589Z,56.40
2022-11-29T13:17:36.314Z,56.40
2022-11-29T13:20:31.679Z,56.30
2022-11-29T13:23:46.028Z,56.30
2022-11-29T13:26:43.656Z,56.20
2022-11-29T13:29:25.404Z,56.20
2022-11-29T13:32:14.625Z,56.20
2022-11-29T13:35:04.613Z,56.20
2022-11-29T13:37:55.716Z,56.20
2022-11-29T13:40:51.603Z,56.10
2022-11-29T13:43:47.657Z,56.20
2022-11-29T13:46:50.631Z,56.20
2022-11-29T13:50:06.687Z,56.20
2022-11-29T13:52:54.629Z,56.10
2022-11-29T13:55:34.687Z,56.10
2022-11-29T13:58:21.656Z,57.00
2022-11-29T14:01:08.844Z,56.10
2022-11-29T14:04:09.607Z,56.10
2022-11-29T14:06:49.659Z,56.00
2022-11-29T14:09:51.605Z,56.00
2022-11-29T14:13:02.607Z,56.00
2022-11-29T14:15:49.650Z,55.90
2022-11-29T14:18:44.737Z,56.00
2022-11-29T14:21:31.666Z,56.00
2022-11-29T14:24:37.645Z,55.90
2022-11-29T14:27:27.722Z,56.00
2022-11-29T14:30:07.616Z,55.80
2022-11-29T14:33:17.611Z,55.80
2022-11-29T14:36:46.593Z,55.90
2022-11-29T14:39:47.605Z,56.00
2022-11-29T14:42:28.923Z,55.90
2022-11-29T14:45:15.650Z,55.90
2022-11-29T14:48:03.874Z,55.80
2022-11-29T14:50:46.625Z,56.90
2022-11-29T14:53:44.674Z,55.80
2022-11-29T14:56:45.685Z,55.80
2022-11-29T14:59:58.626Z,55.70
2022-11-29T15:02:55.626Z,55.80
2022-11-29T15:05:44.259Z,55.70
2022-11-29T15:08:50.619Z,55.60
2022-11-29T15:11:34.264Z,55.70
2022-11-29T15:14:32.658Z,55.60
2022-11-29T15:18:01.651Z,55.60
2022-11-29T15:21:08.987Z,55.50
2022-11-29T15:23:57.620Z,55.50
2022-11-29T15:26:44.660Z,55.50
2022-11-29T15:29:25.634Z,55.50
2022-11-29T15:32:19.627Z,55.50
2022-11-29T15:35:07.625Z,55.30
2022-11-29T15:37:56.620Z,55.30
2022-11-29T15:40:51.636Z,55.30
2022-11-29T15:43:44.687Z,55.30
2022-11-29T15:46:33.619Z,55.30
2022-11-29T15:49:38.664Z,55.40
2022-11-29T15:52:40.599Z,55.30
2022-11-29T15:55:28.627Z,55.30
2022-11-29T15:58:19.733Z,55.20
2022-11-29T16:01:00.660Z,55.20
2022-11-29T16:03:45.266Z,55.30
2022-11-29T16:06:35.629Z,55.30
2022-11-29T16:09:19.814Z,55.30
2022-11-29T16:12:06.653Z,55.40
2022-11-29T16:14:57.688Z,55.40
2022-11-29T16:17:40.668Z,55.40
2022-11-29T16:20:25.013Z,55.40
2022-11-29T16:23:22.615Z,55.80
2022-11-29T16:26:35.651Z,56.00
2022-11-29T16:29:48.732Z,56.10
2022-11-29T16:32:49.608Z,56.10
2022-11-29T16:35:36.463Z,56.20
2022-11-29T16:38:29.621Z,56.20
2022-11-29T16:41:25.750Z,56.30
2022-11-29T16:44:33.615Z,56.40
2022-11-29T16:47:33.673Z,56.50
2022-11-29T16:50:26.626Z,56.50
2022-11-29T16:53:59.642Z,56.50
2022-11-29T16:56:46.739Z,56.60
2022-11-29T16:59:29.603Z,56.60
2022-11-29T17:02:11.700Z,56.70
2022-11-29T17:04:58.607Z,56.60
2022-11-29T17:07:52.781Z,56.70
2022-11-29T17:10:33.262Z,56.60
2022-11-29T17:13:24.633Z,56.60
2022-11-29T17:16:17.670Z,56.60
2022-11-29T17:19:05.695Z,57.70
2022-11-29T17:21:53.010Z,56.70
2022-11-29T17:24:32.639Z,56.70
2022-11-29T17:27:19.628Z,56.80
2022-11-29T17:30:06.652Z,56.60
2022-11-29T17:33:00.660Z,56.70
2022-11-29T17:35:47.624Z,56.60
2022-11-29T17:38:34.657Z,56.70
2022-11-29T17:41:18.864Z,56.70
2022-11-29T17:44:07.660Z,56.70
2022-11-29T17:46:55.020Z,56.80
2022-11-29T17:49:34.753Z,57.10
2022-11-29T17:52:15.285Z,56.90
2022-11-29T17:55:01.619Z,56.80
2022-11-29T17:57:41.793Z,56.90
2022-11-29T18:00:29.623Z,57.00
2022-11-29T18:03:16.675Z,56.90
2022-11-29T18:05:57.628Z,57.00
2022-11-29T18:08:52.625Z,57.00
2022-11-29T18:11:48.487Z,56.90
2022-11-29T18:14:37.795Z,57.00
2022-11-29T18:17:24.611Z,57.00
2022-11-29T18:20:13.418Z,57.10
2022-11-29T18:22:52.620Z,57.10
2022-11-29T18:25:40.290Z,57.00
2022-11-29T18:28:26.659Z,57.10
2022-11-29T18:31:25.659Z,57.00
2022-11-29T18:34:12.833Z,57.00
2022-11-29T18:36:59.609Z,57.00
2022-11-29T18:39:46.814Z,57.10
2022-11-29T18:42:26.750Z,57.10
2022-11-29T18:45:13.657Z,57.10
2022-11-29T18:48:00.665Z,58.00
2022-11-29T18:50:40.604Z,57.10
2022-11-29T18:53:27.643Z,57.00
2022-11-29T18:56:11.902Z,57.00
2022-11-29T18:59:03.628Z,57.10
2022-11-29T19:01:52.651Z,57.10
2022-11-29T19:04:33.144Z,57.10
2022-11-29T19:07:19.694Z,57.20
2022-11-29T19:09:59.759Z,57.20
2022-11-29T19:12:46.634Z,57.20
2022-11-29T19:15:33.643Z,57.10
2022-11-29T19:18:13.774Z,57.10
2022-11-29T19:21:00.621Z,57.10
2022-11-29T19:23:40.694Z,57.20
2022-11-29T19:26:29.651Z,57.10
2022-11-29T19:29:09.665Z,57.00
2022-11-29T19:31:56.679Z,57.10
2022-11-29T19:34:36.730Z,57.10
2022-11-29T19:37:23.632Z,57.10
2022-11-29T19:40:03.671Z,57.00
2022-11-29T19:42:54.650Z,57.10
2022-11-29T19:45:41.674Z,57.00
2022-11-29T19:48:22.132Z,57.00
2022-11-29T19:51:08.684Z,57.00
2022-11-29T19:53:52.009Z,56.90
2022-11-29T19:56:39.654Z,56.90
2022-11-29T19:59:26.743Z,56.90
2022-11-29T20:02:06.660Z,57.00
2022-11-29T20:04:49.580Z,57.00
2022-11-29T20:07:36.640Z,57.00
2022-11-29T20:10:16.815Z,56.90
2022-11-29T20:13:03.611Z,57.00
2022-11-29T20:15:50.793Z,56.90
2022-11-29T20:18:37.723Z,56.90
2022-11-29T20:21:37.664Z,56.80
2022-11-29T20:24:26.672Z,56.90
2022-11-29T20:27:13.672Z,56.90
2022-11-29T20:29:53.641Z,57.00
2022-11-29T20:32:41.623Z,57.00
2022-11-29T20:35:21.815Z,56.90
2022-11-29T20:38:30.632Z,56.70
2022-11-29T20:41:28.705Z,56.70
2022-11-29T20:44:20.671Z,56.60
2022-11-29T20:47:00.784Z,57.50
2022-11-29T20:49:47.881Z,56.50
2022-11-29T20:52:44.792Z,56.30
2022-11-29T20:55:31.632Z,56.30
2022-11-29T20:58:19.633Z,56.00
2022-11-29T21:01:00.712Z,57.00
2022-11-29T21:03:47.712Z,55.90
2022-11-29T21:06:35.352Z,56.90
2022-11-29T21:09:15.668Z,56.00
2022-11-29T21:11:55.634Z,56.90
2022-11-29T21:14:36.655Z,56.10
2022-11-29T21:17:26.459Z,56.00
2022-11-29T21:20:16.104Z,56.10
2022-11-29T21:23:24.631Z,55.80
2022-11-29T21:26:16.767Z,55.30
2022-11-29T21:29:18.928Z,55.20
2022-11-29T21:32:07.786Z,55.40
2022-11-29T21:34:48.051Z,55.60
2022-11-29T21:37:37.675Z,55.80
2022-11-29T21:40:19.702Z,55.90
2022-11-29T21:43:06.639Z,56.00
2022-11-29T21:45:53.639Z,56.10
2022-11-29T21:48:42.307Z,56.20
2022-11-29T21:51:21.628Z,56.20
2022-11-29T21:54:09.763Z,56.20
2022-11-29T21:56:49.840Z,56.10
2022-11-29T21:59:36.657Z,56.30
2022-11-29T22:02:23.791Z,56.40
2022-11-29T22:05:04.319Z,56.50
2022-11-29T22:07:50.700Z,56.70
2022-11-29T22:10:32.249Z,56.80
2022-11-29T22:13:18.647Z,56.80
2022-11-29T22:16:19.671Z,57.00
2022-11-29T22:19:00.213Z,57.10
2022-11-29T22:21:46.636Z,57.10
2022-11-29T22:24:36.681Z,57.30
2022-11-29T22:27:18.356Z,57.40
2022-11-29T22:30:04.628Z,57.50
2022-11-29T22:32:44.691Z,57.60
2022-11-29T22:35:31.684Z,57.70
2022-11-29T22:38:11.683Z,57.70
2022-11-29T22:40:58.683Z,57.70
2022-11-29T22:43:39.678Z,57.60
2022-11-29T22:46:28.690Z,57.60
2022-11-29T22:49:16.644Z,57.60
2022-11-29T22:51:57.174Z,57.60
2022-11-29T22:54:43.814Z,57.40
2022-11-29T22:57:24.160Z,57.40
2022-11-29T23:00:10.676Z,57.40
2022-11-29T23:02:50.755Z,57.30
2022-11-29T23:05:38.657Z,57.10
2022-11-29T23:08:19.120Z,57.00
2022-11-29T23:11:10.688Z,56.90
2022-11-29T23:13:57.680Z,56.90
2022-11-29T23:16:44.744Z,57.10
2022-11-29T23:19:25.133Z,57.00
2022-11-29T23:22:11.752Z,56.70
2022-11-29T23:24:59.710Z,56.70
2022-11-29T23:27:39.649Z,56.50
2022-11-29T23:30:28.097Z,56.40
2022-11-29T23:33:14.663Z,56.40
2022-11-29T23:35:56.684Z,56.30
2022-11-29T23:38:44.647Z,56.30
2022-11-29T23:41:24.978Z,56.20
2022-11-29T23:44:11.693Z,56.20
2022-11-29T23:46:51.696Z,56.20
2022-11-29T23:49:41.661Z,56.20
2022-11-29T23:52:21.696Z,56.20
2022-11-29T23:55:08.671Z,56.20
2022-11-29T23:57:48.752Z,56.10
